sensor_id;sensor_type;location;lat;lon;timestamp;P1;durP1;ratioP1;P2;durP2;ratioP2
65463;SDS011;52063;45.110;9.870;2024-01-25T00:00:28;12.00;;;10.48;;
65463;SDS011;52063;45.110;9.870;2024-01-25T00:02:54;13.47;;;10.40;;
65463;SDS011;52063;45.110;9.870;2024-01-25T00:05:19;12.13;;;10.30;;
65463;SDS011;52063;45.110;9.870;2024-01-25T00:07:47;16.33;;;11.07;;
65463;SDS011;52063;45.110;9.870;2024-01-25T00:10:13;13.00;;;10.10;;
65463;SDS011;52063;45.110;9.870;2024-01-25T00:12:40;14.85;;;10.52;;
65463;SDS011;52063;45.110;9.870;2024-01-25T00:15:07;13.80;;;10.50;;
65463;SDS011;52063;45.110;9.870;2024-01-25T00:17:32;12.47;;;10.20;;
65463;SDS011;52063;45.110;9.870;2024-01-25T00:19:58;14.18;;;11.23;;
65463;SDS011;52063;45.110;9.870;2024-01-25T00:22:23;15.77;;;10.40;;
65463;SDS011;52063;45.110;9.870;2024-01-25T00:24:49;12.53;;;10.53;;
65463;SDS011;52063;45.110;9.870;2024-01-25T00:27:14;12.77;;;10.10;;
65463;SDS011;52063;45.110;9.870;2024-01-25T00:29:39;12.67;;;10.77;;
65463;SDS011;52063;45.110;9.870;2024-01-25T00:32:05;15.03;;;10.80;;
65463;SDS011;52063;45.110;9.870;2024-01-25T00:34:31;15.15;;;11.13;;
65463;SDS011;52063;45.110;9.870;2024-01-25T00:36:57;15.97;;;11.07;;
65463;SDS011;52063;45.110;9.870;2024-01-25T00:39:22;13.15;;;11.15;;
65463;SDS011;52063;45.110;9.870;2024-01-25T00:41:50;12.20;;;10.90;;
65463;SDS011;52063;45.110;9.870;2024-01-25T00:44:16;14.82;;;10.90;;
65463;SDS011;52063;45.110;9.870;2024-01-25T00:46:42;13.73;;;11.02;;
65463;SDS011;52063;45.110;9.870;2024-01-25T00:49:08;13.40;;;11.00;;
65463;SDS011;52063;45.110;9.870;2024-01-25T00:51:34;15.30;;;10.77;;
65463;SDS011;52063;45.110;9.870;2024-01-25T00:54:01;13.52;;;10.60;;
65463;SDS011;52063;45.110;9.870;2024-01-25T00:56:27;14.73;;;11.13;;
65463;SDS011;52063;45.110;9.870;2024-01-25T00:58:53;13.55;;;11.43;;
65463;SDS011;52063;45.110;9.870;2024-01-25T01:01:19;16.97;;;11.30;;
65463;SDS011;52063;45.110;9.870;2024-01-25T01:03:47;13.75;;;11.27;;
65463;SDS011;52063;45.110;9.870;2024-01-25T01:06:18;13.25;;;10.90;;
65463;SDS011;52063;45.110;9.870;2024-01-25T01:08:45;14.10;;;11.13;;
65463;SDS011;52063;45.110;9.870;2024-01-25T01:11:11;19.02;;;11.13;;
65463;SDS011;52063;45.110;9.870;2024-01-25T01:13:37;14.33;;;11.37;;
65463;SDS011;52063;45.110;9.870;2024-01-25T01:16:02;16.87;;;11.63;;
65463;SDS011;52063;45.110;9.870;2024-01-25T01:18:28;13.43;;;11.30;;
65463;SDS011;52063;45.110;9.870;2024-01-25T01:20:53;14.27;;;11.43;;
65463;SDS011;52063;45.110;9.870;2024-01-25T01:23:19;14.40;;;11.30;;
65463;SDS011;52063;45.110;9.870;2024-01-25T01:25:44;13.17;;;11.27;;
65463;SDS011;52063;45.110;9.870;2024-01-25T01:28:10;14.20;;;11.55;;
65463;SDS011;52063;45.110;9.870;2024-01-25T01:30:35;13.30;;;11.23;;
65463;SDS011;52063;45.110;9.870;2024-01-25T01:33:01;14.17;;;11.60;;
65463;SDS011;52063;45.110;9.870;2024-01-25T01:35:26;12.40;;;10.70;;
65463;SDS011;52063;45.110;9.870;2024-01-25T01:37:51;13.65;;;11.07;;
65463;SDS011;52063;45.110;9.870;2024-01-25T01:40:17;13.00;;;11.10;;
65463;SDS011;52063;45.110;9.870;2024-01-25T01:42:42;13.40;;;10.93;;
65463;SDS011;52063;45.110;9.870;2024-01-25T01:45:09;12.30;;;10.73;;
65463;SDS011;52063;45.110;9.870;2024-01-25T01:47:36;14.30;;;11.50;;
65463;SDS011;52063;45.110;9.870;2024-01-25T01:50:01;14.97;;;11.17;;
65463;SDS011;52063;45.110;9.870;2024-01-25T01:52:27;15.00;;;11.43;;
65463;SDS011;52063;45.110;9.870;2024-01-25T01:54:53;12.65;;;10.63;;
65463;SDS011;52063;45.110;9.870;2024-01-25T01:57:18;12.33;;;11.03;;
65463;SDS011;52063;45.110;9.870;2024-01-25T01:59:44;13.18;;;11.32;;
65463;SDS011;52063;45.110;9.870;2024-01-25T02:02:11;12.97;;;10.93;;
65463;SDS011;52063;45.110;9.870;2024-01-25T02:04:36;14.38;;;11.30;;
65463;SDS011;52063;45.110;9.870;2024-01-25T02:07:02;13.53;;;11.73;;
65463;SDS011;52063;45.110;9.870;2024-01-25T02:09:29;13.13;;;10.80;;
65463;SDS011;52063;45.110;9.870;2024-01-25T02:12:01;12.20;;;10.48;;
65463;SDS011;52063;45.110;9.870;2024-01-25T02:14:27;12.60;;;10.60;;
65463;SDS011;52063;45.110;9.870;2024-01-25T02:16:53;13.35;;;10.98;;
65463;SDS011;52063;45.110;9.870;2024-01-25T02:19:18;13.50;;;10.43;;
65463;SDS011;52063;45.110;9.870;2024-01-25T02:21:44;14.63;;;11.60;;
65463;SDS011;52063;45.110;9.870;2024-01-25T02:24:09;12.83;;;11.43;;
65463;SDS011;52063;45.110;9.870;2024-01-25T02:26:35;12.30;;;10.80;;
65463;SDS011;52063;45.110;9.870;2024-01-25T02:29:01;13.40;;;11.33;;
65463;SDS011;52063;45.110;9.870;2024-01-25T02:31:30;13.63;;;10.77;;
65463;SDS011;52063;45.110;9.870;2024-01-25T02:33:55;13.95;;;11.13;;
65463;SDS011;52063;45.110;9.870;2024-01-25T02:36:24;12.33;;;10.80;;
65463;SDS011;52063;45.110;9.870;2024-01-25T02:38:50;15.50;;;11.15;;
65463;SDS011;52063;45.110;9.870;2024-01-25T02:41:15;13.60;;;11.00;;
65463;SDS011;52063;45.110;9.870;2024-01-25T02:43:41;12.40;;;11.10;;
65463;SDS011;52063;45.110;9.870;2024-01-25T02:46:07;12.40;;;10.83;;
65463;SDS011;52063;45.110;9.870;2024-01-25T02:48:32;13.10;;;11.02;;
65463;SDS011;52063;45.110;9.870;2024-01-25T02:50:58;12.38;;;11.07;;
65463;SDS011;52063;45.110;9.870;2024-01-25T02:53:24;14.20;;;10.70;;
65463;SDS011;52063;45.110;9.870;2024-01-25T02:55:49;12.57;;;10.57;;
65463;SDS011;52063;45.110;9.870;2024-01-25T02:58:15;12.10;;;10.50;;
65463;SDS011;52063;45.110;9.870;2024-01-25T03:00:40;13.18;;;11.15;;
65463;SDS011;52063;45.110;9.870;2024-01-25T03:03:05;15.13;;;11.20;;
65463;SDS011;52063;45.110;9.870;2024-01-25T03:05:31;13.57;;;10.40;;
65463;SDS011;52063;45.110;9.870;2024-01-25T03:07:56;11.60;;;10.30;;
65463;SDS011;52063;45.110;9.870;2024-01-25T03:10:23;13.50;;;10.70;;
65463;SDS011;52063;45.110;9.870;2024-01-25T03:12:48;11.88;;;10.40;;
65463;SDS011;52063;45.110;9.870;2024-01-25T03:15:14;13.13;;;10.73;;
65463;SDS011;52063;45.110;9.870;2024-01-25T03:17:40;12.63;;;10.18;;
65463;SDS011;52063;45.110;9.870;2024-01-25T03:20:05;12.27;;;10.70;;
65463;SDS011;52063;45.110;9.870;2024-01-25T03:22:31;14.02;;;11.43;;
65463;SDS011;52063;45.110;9.870;2024-01-25T03:24:57;12.93;;;10.23;;
65463;SDS011;52063;45.110;9.870;2024-01-25T03:27:22;12.97;;;11.10;;
65463;SDS011;52063;45.110;9.870;2024-01-25T03:29:47;13.00;;;10.52;;
65463;SDS011;52063;45.110;9.870;2024-01-25T03:32:13;12.33;;;10.27;;
65463;SDS011;52063;45.110;9.870;2024-01-25T03:34:38;12.93;;;10.07;;
65463;SDS011;52063;45.110;9.870;2024-01-25T03:37:04;12.30;;;10.73;;
65463;SDS011;52063;45.110;9.870;2024-01-25T03:39:30;11.93;;;10.40;;
65463;SDS011;52063;45.110;9.870;2024-01-25T03:41:55;11.70;;;10.48;;
65463;SDS011;52063;45.110;9.870;2024-01-25T03:44:21;11.37;;;10.17;;
65463;SDS011;52063;45.110;9.870;2024-01-25T03:46:46;12.93;;;10.47;;
65463;SDS011;52063;45.110;9.870;2024-01-25T03:49:12;13.07;;;10.63;;
65463;SDS011;52063;45.110;9.870;2024-01-25T03:51:37;12.88;;;10.57;;
65463;SDS011;52063;45.110;9.870;2024-01-25T03:54:03;14.77;;;10.50;;
65463;SDS011;52063;45.110;9.870;2024-01-25T03:56:28;11.75;;;10.20;;
65463;SDS011;52063;45.110;9.870;2024-01-25T03:58:54;12.37;;;10.60;;
65463;SDS011;52063;45.110;9.870;2024-01-25T04:01:19;11.67;;;10.07;;
65463;SDS011;52063;45.110;9.870;2024-01-25T04:03:45;12.88;;;10.73;;
65463;SDS011;52063;45.110;9.870;2024-01-25T04:06:11;13.33;;;10.80;;
65463;SDS011;52063;45.110;9.870;2024-01-25T04:08:36;11.90;;;10.50;;
65463;SDS011;52063;45.110;9.870;2024-01-25T04:11:02;13.13;;;10.33;;
65463;SDS011;52063;45.110;9.870;2024-01-25T04:13:27;13.35;;;10.35;;
65463;SDS011;52063;45.110;9.870;2024-01-25T04:15:52;12.40;;;10.17;;
65463;SDS011;52063;45.110;9.870;2024-01-25T04:18:18;12.90;;;10.53;;
65463;SDS011;52063;45.110;9.870;2024-01-25T04:20:43;12.65;;;10.15;;
65463;SDS011;52063;45.110;9.870;2024-01-25T04:23:09;13.40;;;10.30;;
65463;SDS011;52063;45.110;9.870;2024-01-25T04:25:35;12.35;;;10.30;;
65463;SDS011;52063;45.110;9.870;2024-01-25T04:28:00;13.33;;;9.83;;
65463;SDS011;52063;45.110;9.870;2024-01-25T04:30:27;11.52;;;10.27;;
65463;SDS011;52063;45.110;9.870;2024-01-25T04:32:52;11.53;;;10.07;;
65463;SDS011;52063;45.110;9.870;2024-01-25T04:35:17;13.87;;;10.20;;
65463;SDS011;52063;45.110;9.870;2024-01-25T04:37:43;11.05;;;9.85;;
65463;SDS011;52063;45.110;9.870;2024-01-25T04:40:08;10.93;;;9.20;;
65463;SDS011;52063;45.110;9.870;2024-01-25T04:42:34;11.43;;;10.23;;
65463;SDS011;52063;45.110;9.870;2024-01-25T04:45:00;12.70;;;9.75;;
65463;SDS011;52063;45.110;9.870;2024-01-25T04:47:25;11.67;;;9.70;;
65463;SDS011;52063;45.110;9.870;2024-01-25T04:49:51;12.77;;;9.93;;
65463;SDS011;52063;45.110;9.870;2024-01-25T04:52:16;12.05;;;9.50;;
65463;SDS011;52063;45.110;9.870;2024-01-25T04:54:42;13.43;;;9.60;;
65463;SDS011;52063;45.110;9.870;2024-01-25T04:57:07;11.73;;;9.37;;
65463;SDS011;52063;45.110;9.870;2024-01-25T04:59:33;11.70;;;9.33;;
65463;SDS011;52063;45.110;9.870;2024-01-25T05:01:59;14.43;;;9.35;;
65463;SDS011;52063;45.110;9.870;2024-01-25T05:04:24;11.38;;;9.32;;
65463;SDS011;52063;45.110;9.870;2024-01-25T05:06:50;10.47;;;9.37;;
65463;SDS011;52063;45.110;9.870;2024-01-25T05:09:15;10.90;;;9.05;;
65463;SDS011;52063;45.110;9.870;2024-01-25T05:11:41;10.73;;;9.20;;
65463;SDS011;52063;45.110;9.870;2024-01-25T05:14:06;10.20;;;9.17;;
65463;SDS011;52063;45.110;9.870;2024-01-25T05:16:32;12.60;;;9.73;;
65463;SDS011;52063;45.110;9.870;2024-01-25T05:18:58;10.48;;;9.23;;
65463;SDS011;52063;45.110;9.870;2024-01-25T05:21:23;10.07;;;9.03;;
65463;SDS011;52063;45.110;9.870;2024-01-25T05:23:49;11.40;;;9.27;;
65463;SDS011;52063;45.110;9.870;2024-01-25T05:26:15;12.95;;;9.35;;
65463;SDS011;52063;45.110;9.870;2024-01-25T05:28:40;9.77;;;8.77;;
65463;SDS011;52063;45.110;9.870;2024-01-25T05:31:06;10.23;;;9.13;;
65463;SDS011;52063;45.110;9.870;2024-01-25T05:33:37;12.27;;;9.37;;
65463;SDS011;52063;45.110;9.870;2024-01-25T05:36:06;10.15;;;8.90;;
65463;SDS011;52063;45.110;9.870;2024-01-25T05:38:34;11.00;;;9.50;;
65463;SDS011;52063;45.110;9.870;2024-01-25T05:40:59;10.93;;;9.30;;
65463;SDS011;52063;45.110;9.870;2024-01-25T05:43:25;10.13;;;9.13;;
65463;SDS011;52063;45.110;9.870;2024-01-25T05:45:50;10.70;;;9.10;;
65463;SDS011;52063;45.110;9.870;2024-01-25T05:48:16;10.65;;;9.52;;
65463;SDS011;52063;45.110;9.870;2024-01-25T05:50:41;9.57;;;8.57;;
65463;SDS011;52063;45.110;9.870;2024-01-25T05:53:07;9.87;;;8.47;;
65463;SDS011;52063;45.110;9.870;2024-01-25T05:55:32;10.77;;;9.00;;
65463;SDS011;52063;45.110;9.870;2024-01-25T05:57:58;10.57;;;8.32;;
65463;SDS011;52063;45.110;9.870;2024-01-25T06:00:23;10.60;;;9.00;;
65463;SDS011;52063;45.110;9.870;2024-01-25T06:02:48;10.17;;;8.60;;
65463;SDS011;52063;45.110;9.870;2024-01-25T06:05:14;9.87;;;8.83;;
65463;SDS011;52063;45.110;9.870;2024-01-25T06:07:39;10.23;;;8.20;;
65463;SDS011;52063;45.110;9.870;2024-01-25T06:10:06;10.32;;;8.93;;
65463;SDS011;52063;45.110;9.870;2024-01-25T06:12:32;9.80;;;8.80;;
65463;SDS011;52063;45.110;9.870;2024-01-25T06:14:58;9.73;;;8.55;;
65463;SDS011;52063;45.110;9.870;2024-01-25T06:17:23;9.77;;;8.77;;
65463;SDS011;52063;45.110;9.870;2024-01-25T06:19:49;10.93;;;8.57;;
65463;SDS011;52063;45.110;9.870;2024-01-25T06:22:15;10.20;;;8.37;;
65463;SDS011;52063;45.110;9.870;2024-01-25T06:24:42;10.20;;;8.80;;
65463;SDS011;52063;45.110;9.870;2024-01-25T06:27:09;10.77;;;8.65;;
65463;SDS011;52063;45.110;9.870;2024-01-25T06:29:34;11.02;;;8.73;;
65463;SDS011;52063;45.110;9.870;2024-01-25T06:32:00;10.73;;;8.20;;
65463;SDS011;52063;45.110;9.870;2024-01-25T06:34:25;10.23;;;8.30;;
65463;SDS011;52063;45.110;9.870;2024-01-25T06:36:51;10.73;;;8.77;;
65463;SDS011;52063;45.110;9.870;2024-01-25T06:39:16;9.38;;;7.88;;
65463;SDS011;52063;45.110;9.870;2024-01-25T06:41:41;9.43;;;8.27;;
65463;SDS011;52063;45.110;9.870;2024-01-25T06:44:07;10.23;;;8.37;;
65463;SDS011;52063;45.110;9.870;2024-01-25T06:46:32;10.73;;;8.45;;
65463;SDS011;52063;45.110;9.870;2024-01-25T06:48:58;10.47;;;8.83;;
65463;SDS011;52063;45.110;9.870;2024-01-25T06:51:23;10.30;;;8.20;;
65463;SDS011;52063;45.110;9.870;2024-01-25T06:53:49;10.45;;;8.50;;
65463;SDS011;52063;45.110;9.870;2024-01-25T06:56:14;10.40;;;8.33;;
65463;SDS011;52063;45.110;9.870;2024-01-25T06:58:40;8.73;;;7.77;;
65463;SDS011;52063;45.110;9.870;2024-01-25T07:01:05;8.93;;;8.02;;
65463;SDS011;52063;45.110;9.870;2024-01-25T07:03:31;9.07;;;8.17;;
65463;SDS011;52063;45.110;9.870;2024-01-25T07:05:57;11.07;;;8.20;;
65463;SDS011;52063;45.110;9.870;2024-01-25T07:08:22;8.75;;;7.72;;
65463;SDS011;52063;45.110;9.870;2024-01-25T07:10:49;8.95;;;8.05;;
65463;SDS011;52063;45.110;9.870;2024-01-25T07:13:14;9.40;;;8.37;;
65463;SDS011;52063;45.110;9.870;2024-01-25T07:15:40;10.07;;;8.20;;
65463;SDS011;52063;45.110;9.870;2024-01-25T07:18:06;9.27;;;8.27;;
65463;SDS011;52063;45.110;9.870;2024-01-25T07:20:31;9.03;;;7.77;;
65463;SDS011;52063;45.110;9.870;2024-01-25T07:22:56;9.30;;;8.30;;
65463;SDS011;52063;45.110;9.870;2024-01-25T07:25:22;11.55;;;8.98;;
65463;SDS011;52063;45.110;9.870;2024-01-25T07:27:48;9.50;;;8.03;;
65463;SDS011;52063;45.110;9.870;2024-01-25T07:30:14;12.02;;;8.68;;
65463;SDS011;52063;45.110;9.870;2024-01-25T07:32:40;9.33;;;8.43;;
65463;SDS011;52063;45.110;9.870;2024-01-25T07:35:11;10.55;;;9.00;;
65463;SDS011;52063;45.110;9.870;2024-01-25T07:37:38;11.13;;;9.05;;
65463;SDS011;52063;45.110;9.870;2024-01-25T07:40:04;10.73;;;8.82;;
65463;SDS011;52063;45.110;9.870;2024-01-25T07:42:30;10.40;;;8.85;;
65463;SDS011;52063;45.110;9.870;2024-01-25T07:44:55;10.57;;;8.63;;
65463;SDS011;52063;45.110;9.870;2024-01-25T07:47:21;10.77;;;9.20;;
65463;SDS011;52063;45.110;9.870;2024-01-25T07:49:47;38.53;;;27.97;;
65463;SDS011;52063;45.110;9.870;2024-01-25T07:52:13;42.97;;;32.10;;
65463;SDS011;52063;45.110;9.870;2024-01-25T07:54:39;44.45;;;33.88;;
65463;SDS011;52063;45.110;9.870;2024-01-25T07:57:04;52.67;;;40.43;;
65463;SDS011;52063;45.110;9.870;2024-01-25T07:59:30;47.37;;;34.83;;
65463;SDS011;52063;45.110;9.870;2024-01-25T08:01:55;47.37;;;34.50;;
65463;SDS011;52063;45.110;9.870;2024-01-25T08:04:21;30.73;;;22.13;;
65463;SDS011;52063;45.110;9.870;2024-01-25T08:06:47;25.00;;;19.70;;
65463;SDS011;52063;45.110;9.870;2024-01-25T08:09:12;27.53;;;20.33;;
65463;SDS011;52063;45.110;9.870;2024-01-25T08:11:38;22.77;;;19.80;;
65463;SDS011;52063;45.110;9.870;2024-01-25T08:14:03;22.98;;;19.30;;
65463;SDS011;52063;45.110;9.870;2024-01-25T08:16:29;25.67;;;19.63;;
65463;SDS011;52063;45.110;9.870;2024-01-25T08:18:55;24.77;;;19.70;;
65463;SDS011;52063;45.110;9.870;2024-01-25T08:21:20;24.73;;;20.03;;
65463;SDS011;52063;45.110;9.870;2024-01-25T08:23:46;26.73;;;20.83;;
65463;SDS011;52063;45.110;9.870;2024-01-25T08:26:12;26.92;;;20.88;;
65463;SDS011;52063;45.110;9.870;2024-01-25T08:28:39;27.60;;;20.27;;
65463;SDS011;52063;45.110;9.870;2024-01-25T08:31:05;24.80;;;20.60;;
65463;SDS011;52063;45.110;9.870;2024-01-25T08:33:30;25.70;;;20.47;;
65463;SDS011;52063;45.110;9.870;2024-01-25T08:35:56;25.42;;;20.75;;
65463;SDS011;52063;45.110;9.870;2024-01-25T08:38:21;26.07;;;20.83;;
65463;SDS011;52063;45.110;9.870;2024-01-25T08:40:47;24.60;;;20.33;;
65463;SDS011;52063;45.110;9.870;2024-01-25T08:43:12;26.73;;;20.88;;
65463;SDS011;52063;45.110;9.870;2024-01-25T08:45:38;27.47;;;21.63;;
65463;SDS011;52063;45.110;9.870;2024-01-25T08:48:03;25.77;;;21.27;;
65463;SDS011;52063;45.110;9.870;2024-01-25T08:50:29;29.38;;;21.48;;
65463;SDS011;52063;45.110;9.870;2024-01-25T08:52:55;27.47;;;21.17;;
65463;SDS011;52063;45.110;9.870;2024-01-25T08:55:20;29.65;;;23.10;;
65463;SDS011;52063;45.110;9.870;2024-01-25T08:57:47;28.60;;;23.50;;
65463;SDS011;52063;45.110;9.870;2024-01-25T09:00:13;28.20;;;22.17;;
65463;SDS011;52063;45.110;9.870;2024-01-25T09:02:40;27.50;;;22.55;;
65463;SDS011;52063;45.110;9.870;2024-01-25T09:05:06;29.85;;;23.48;;
65463;SDS011;52063;45.110;9.870;2024-01-25T09:07:32;32.15;;;24.17;;
65463;SDS011;52063;45.110;9.870;2024-01-25T09:09:57;32.90;;;25.67;;
65463;SDS011;52063;45.110;9.870;2024-01-25T09:12:23;30.20;;;25.05;;
65463;SDS011;52063;45.110;9.870;2024-01-25T09:14:49;34.00;;;26.37;;
65463;SDS011;52063;45.110;9.870;2024-01-25T09:17:14;34.13;;;25.93;;
65463;SDS011;52063;45.110;9.870;2024-01-25T09:19:46;31.95;;;25.90;;
65463;SDS011;52063;45.110;9.870;2024-01-25T09:22:16;32.13;;;25.98;;
65463;SDS011;52063;45.110;9.870;2024-01-25T09:24:44;34.85;;;27.55;;
65463;SDS011;52063;45.110;9.870;2024-01-25T09:27:11;36.20;;;27.85;;
65463;SDS011;52063;45.110;9.870;2024-01-25T09:29:38;35.67;;;28.20;;
65463;SDS011;52063;45.110;9.870;2024-01-25T09:32:05;32.78;;;26.88;;
65463;SDS011;52063;45.110;9.870;2024-01-25T09:34:34;33.72;;;27.15;;
65463;SDS011;52063;45.110;9.870;2024-01-25T09:37:00;35.30;;;28.63;;
65463;SDS011;52063;45.110;9.870;2024-01-25T09:39:26;38.47;;;29.07;;
65463;SDS011;52063;45.110;9.870;2024-01-25T09:41:51;35.90;;;28.30;;
65463;SDS011;52063;45.110;9.870;2024-01-25T09:44:17;35.47;;;28.33;;
65463;SDS011;52063;45.110;9.870;2024-01-25T09:46:43;34.53;;;27.65;;
65463;SDS011;52063;45.110;9.870;2024-01-25T09:49:08;39.15;;;29.05;;
65463;SDS011;52063;45.110;9.870;2024-01-25T09:51:38;35.70;;;28.43;;
65463;SDS011;52063;45.110;9.870;2024-01-25T09:54:05;38.42;;;30.08;;
65463;SDS011;52063;45.110;9.870;2024-01-25T09:56:33;33.83;;;28.27;;
65463;SDS011;52063;45.110;9.870;2024-01-25T09:59:00;36.50;;;28.55;;
65463;SDS011;52063;45.110;9.870;2024-01-25T10:01:25;36.05;;;28.75;;
65463;SDS011;52063;45.110;9.870;2024-01-25T10:03:51;33.53;;;28.60;;
65463;SDS011;52063;45.110;9.870;2024-01-25T10:06:17;37.37;;;29.97;;
65463;SDS011;52063;45.110;9.870;2024-01-25T10:08:43;38.30;;;30.15;;
65463;SDS011;52063;45.110;9.870;2024-01-25T10:11:09;39.03;;;30.45;;
65463;SDS011;52063;45.110;9.870;2024-01-25T10:14:10;34.83;;;28.90;;
65463;SDS011;52063;45.110;9.870;2024-01-25T10:16:29;35.78;;;28.70;;
65463;SDS011;52063;45.110;9.870;2024-01-25T10:18:55;36.95;;;28.83;;
65463;SDS011;52063;45.110;9.870;2024-01-25T10:21:20;35.87;;;29.47;;
65463;SDS011;52063;45.110;9.870;2024-01-25T10:23:46;38.45;;;29.45;;
65463;SDS011;52063;45.110;9.870;2024-01-25T10:26:12;39.40;;;30.27;;
65463;SDS011;52063;45.110;9.870;2024-01-25T10:28:37;37.03;;;29.98;;
65463;SDS011;52063;45.110;9.870;2024-01-25T10:31:03;38.37;;;30.40;;
65463;SDS011;52063;45.110;9.870;2024-01-25T10:33:32;40.53;;;31.85;;
65463;SDS011;52063;45.110;9.870;2024-01-25T10:35:59;37.73;;;30.50;;
65463;SDS011;52063;45.110;9.870;2024-01-25T10:38:31;39.92;;;30.38;;
65463;SDS011;52063;45.110;9.870;2024-01-25T10:41:00;39.30;;;30.85;;
65463;SDS011;52063;45.110;9.870;2024-01-25T10:43:27;41.17;;;30.95;;
65463;SDS011;52063;45.110;9.870;2024-01-25T10:45:53;38.65;;;31.75;;
65463;SDS011;52063;45.110;9.870;2024-01-25T10:48:22;37.90;;;29.70;;
65463;SDS011;52063;45.110;9.870;2024-01-25T10:50:48;38.92;;;29.58;;
65463;SDS011;52063;45.110;9.870;2024-01-25T10:53:14;38.07;;;30.83;;
65463;SDS011;52063;45.110;9.870;2024-01-25T10:55:40;38.95;;;30.23;;
65463;SDS011;52063;45.110;9.870;2024-01-25T10:58:07;38.72;;;31.00;;
65463;SDS011;52063;45.110;9.870;2024-01-25T11:00:34;39.97;;;30.93;;
65463;SDS011;52063;45.110;9.870;2024-01-25T11:03:00;40.38;;;29.67;;
65463;SDS011;52063;45.110;9.870;2024-01-25T11:05:26;39.53;;;29.15;;
65463;SDS011;52063;45.110;9.870;2024-01-25T11:07:51;36.97;;;29.87;;
65463;SDS011;52063;45.110;9.870;2024-01-25T11:10:17;38.75;;;28.70;;
65463;SDS011;52063;45.110;9.870;2024-01-25T11:12:51;39.93;;;28.97;;
65463;SDS011;52063;45.110;9.870;2024-01-25T11:15:21;39.10;;;29.10;;
65463;SDS011;52063;45.110;9.870;2024-01-25T11:17:51;36.83;;;28.95;;
65463;SDS011;52063;45.110;9.870;2024-01-25T11:20:25;38.33;;;29.88;;
65463;SDS011;52063;45.110;9.870;2024-01-25T11:22:58;35.20;;;28.90;;
65463;SDS011;52063;45.110;9.870;2024-01-25T11:25:28;37.97;;;28.87;;
65463;SDS011;52063;45.110;9.870;2024-01-25T11:27:54;37.13;;;29.45;;
65463;SDS011;52063;45.110;9.870;2024-01-25T11:30:20;37.97;;;29.58;;
65463;SDS011;52063;45.110;9.870;2024-01-25T11:32:46;35.23;;;28.43;;
65463;SDS011;52063;45.110;9.870;2024-01-25T11:35:12;37.67;;;28.30;;
65463;SDS011;52063;45.110;9.870;2024-01-25T11:37:42;41.08;;;29.98;;
65463;SDS011;52063;45.110;9.870;2024-01-25T11:40:09;37.88;;;28.00;;
65463;SDS011;52063;45.110;9.870;2024-01-25T11:42:35;38.92;;;28.95;;
65463;SDS011;52063;45.110;9.870;2024-01-25T11:45:01;35.80;;;28.47;;
65463;SDS011;52063;45.110;9.870;2024-01-25T11:47:27;35.13;;;28.27;;
65463;SDS011;52063;45.110;9.870;2024-01-25T11:49:53;35.57;;;27.67;;
65463;SDS011;52063;45.110;9.870;2024-01-25T11:52:19;37.42;;;29.08;;
65463;SDS011;52063;45.110;9.870;2024-01-25T11:54:44;38.13;;;29.93;;
65463;SDS011;52063;45.110;9.870;2024-01-25T11:57:10;38.60;;;28.88;;
65463;SDS011;52063;45.110;9.870;2024-01-25T11:59:35;37.23;;;29.40;;
65463;SDS011;52063;45.110;9.870;2024-01-25T12:02:01;37.10;;;28.55;;
65463;SDS011;52063;45.110;9.870;2024-01-25T12:04:26;37.87;;;27.87;;
65463;SDS011;52063;45.110;9.870;2024-01-25T12:06:52;37.92;;;28.63;;
65463;SDS011;52063;45.110;9.870;2024-01-25T12:09:18;34.33;;;28.20;;
65463;SDS011;52063;45.110;9.870;2024-01-25T12:11:43;35.60;;;28.30;;
65463;SDS011;52063;45.110;9.870;2024-01-25T12:14:09;37.25;;;27.85;;
65463;SDS011;52063;45.110;9.870;2024-01-25T12:16:34;37.97;;;28.53;;
65463;SDS011;52063;45.110;9.870;2024-01-25T12:19:00;35.35;;;27.92;;
65463;SDS011;52063;45.110;9.870;2024-01-25T12:21:25;38.67;;;28.07;;
65463;SDS011;52063;45.110;9.870;2024-01-25T12:23:51;35.60;;;28.50;;
65463;SDS011;52063;45.110;9.870;2024-01-25T12:26:17;35.67;;;28.30;;
65463;SDS011;52063;45.110;9.870;2024-01-25T12:28:42;34.63;;;26.93;;
65463;SDS011;52063;45.110;9.870;2024-01-25T12:31:08;35.23;;;27.33;;
65463;SDS011;52063;45.110;9.870;2024-01-25T12:33:34;34.97;;;27.67;;
65463;SDS011;52063;45.110;9.870;2024-01-25T12:36:00;36.55;;;29.30;;
65463;SDS011;52063;45.110;9.870;2024-01-25T12:38:27;37.15;;;27.45;;
65463;SDS011;52063;45.110;9.870;2024-01-25T12:40:54;34.33;;;26.67;;
65463;SDS011;52063;45.110;9.870;2024-01-25T12:43:20;36.37;;;27.40;;
65463;SDS011;52063;45.110;9.870;2024-01-25T12:45:48;34.95;;;27.00;;
65463;SDS011;52063;45.110;9.870;2024-01-25T12:48:14;32.97;;;27.13;;
65463;SDS011;52063;45.110;9.870;2024-01-25T12:50:41;33.95;;;26.58;;
65463;SDS011;52063;45.110;9.870;2024-01-25T12:53:06;36.13;;;27.30;;
65463;SDS011;52063;45.110;9.870;2024-01-25T12:55:32;36.05;;;27.30;;
65463;SDS011;52063;45.110;9.870;2024-01-25T12:57:59;35.57;;;27.27;;
65463;SDS011;52063;45.110;9.870;2024-01-25T13:00:24;31.98;;;24.85;;
65463;SDS011;52063;45.110;9.870;2024-01-25T13:02:50;34.13;;;25.93;;
65463;SDS011;52063;45.110;9.870;2024-01-25T13:05:16;33.92;;;26.38;;
65463;SDS011;52063;45.110;9.870;2024-01-25T13:07:41;31.90;;;25.97;;
65463;SDS011;52063;45.110;9.870;2024-01-25T13:10:08;32.50;;;25.70;;
65463;SDS011;52063;45.110;9.870;2024-01-25T13:12:34;33.78;;;26.23;;
65463;SDS011;52063;45.110;9.870;2024-01-25T13:14:59;32.83;;;25.47;;
65463;SDS011;52063;45.110;9.870;2024-01-25T13:17:25;31.27;;;25.13;;
65463;SDS011;52063;45.110;9.870;2024-01-25T13:19:52;32.67;;;25.10;;
65463;SDS011;52063;45.110;9.870;2024-01-25T13:22:18;31.33;;;24.23;;
65463;SDS011;52063;45.110;9.870;2024-01-25T13:24:46;34.72;;;25.98;;
65463;SDS011;52063;45.110;9.870;2024-01-25T13:27:12;31.25;;;24.05;;
65463;SDS011;52063;45.110;9.870;2024-01-25T13:29:37;31.77;;;24.93;;
65463;SDS011;52063;45.110;9.870;2024-01-25T13:32:04;34.13;;;25.45;;
65463;SDS011;52063;45.110;9.870;2024-01-25T13:34:29;31.37;;;24.67;;
65463;SDS011;52063;45.110;9.870;2024-01-25T13:36:55;31.00;;;24.48;;
65463;SDS011;52063;45.110;9.870;2024-01-25T13:39:20;30.07;;;23.70;;
65463;SDS011;52063;45.110;9.870;2024-01-25T13:41:47;28.63;;;24.20;;
65463;SDS011;52063;45.110;9.870;2024-01-25T13:44:14;28.67;;;23.63;;
65463;SDS011;52063;45.110;9.870;2024-01-25T13:46:39;29.48;;;24.63;;
65463;SDS011;52063;45.110;9.870;2024-01-25T13:49:05;30.57;;;24.47;;
65463;SDS011;52063;45.110;9.870;2024-01-25T13:51:30;27.97;;;23.63;;
65463;SDS011;52063;45.110;9.870;2024-01-25T13:53:56;27.60;;;22.63;;
65463;SDS011;52063;45.110;9.870;2024-01-25T13:56:21;29.00;;;23.25;;
65463;SDS011;52063;45.110;9.870;2024-01-25T13:58:46;28.83;;;22.77;;
65463;SDS011;52063;45.110;9.870;2024-01-25T14:01:12;28.43;;;23.73;;
65463;SDS011;52063;45.110;9.870;2024-01-25T14:03:37;31.43;;;24.43;;
65463;SDS011;52063;45.110;9.870;2024-01-25T14:06:03;30.17;;;23.63;;
65463;SDS011;52063;45.110;9.870;2024-01-25T14:08:30;28.77;;;22.60;;
65463;SDS011;52063;45.110;9.870;2024-01-25T14:10:56;28.90;;;23.55;;
65463;SDS011;52063;45.110;9.870;2024-01-25T14:13:21;28.97;;;23.20;;
65463;SDS011;52063;45.110;9.870;2024-01-25T14:15:47;27.95;;;23.60;;
65463;SDS011;52063;45.110;9.870;2024-01-25T14:18:12;27.57;;;22.47;;